Terminal Aerodrome Forecast
Issued by NWS Lubbock, TX

Home | Current Version | Previous Version | Text Only | Print | Product List | Glossary On
Versions: 1 2 3 4 5 6 7 8 9 10 11 12 13 14 15 16 17 18 19 20 21
000
FTUS44 KLUB 181220 AAB
TAFLBB
TAF AMD
KLBB 181220Z 1813/1912 29007KT P6SM FEW010
     FM181700 24018G28KT P6SM FEW150
     FM190200 25010KT P6SM FEW150=

USA.gov is the U.S. government's official web portal to all federal, state and local government web resources and services.